createdAt,value
2022-11-05T10:41:33.902Z,11.90
2022-11-05T10:42:33.823Z,12.00
2022-11-05T10:43:33.794Z,13.20
2022-11-05T10:44:33.723Z,13.60
2022-11-05T10:45:33.691Z,12.30
2022-11-05T10:46:33.625Z,13.70
2022-11-05T10:47:33.590Z,12.10
2022-11-05T10:48:33.523Z,13.00
2022-11-05T10:49:33.467Z,15.60
2022-11-05T10:50:33.425Z,12.30
2022-11-05T10:51:33.348Z,13.80
2022-11-05T10:52:33.303Z,11.20
2022-11-05T10:53:33.244Z,11.60
2022-11-05T10:54:33.167Z,9.70
2022-11-05T10:55:33.130Z,12.50
2022-11-05T10:56:33.077Z,12.60
2022-11-05T10:57:33.035Z,12.80
2022-11-05T10:58:32.948Z,14.40
2022-11-05T10:59:32.918Z,10.70
2022-11-05T11:00:32.850Z,11.10
2022-11-05T11:01:32.988Z,11.70
2022-11-05T11:02:32.853Z,16.50
2022-11-05T11:03:32.680Z,14.20
2022-11-05T11:04:37.622Z,15.20
2022-11-05T11:05:33.560Z,14.90
2022-11-05T11:06:32.501Z,14.00
2022-11-05T11:07:32.451Z,13.10
2022-11-05T11:08:32.392Z,14.20
2022-11-05T11:09:32.332Z,14.50
2022-11-05T11:10:32.269Z,15.50
2022-11-05T11:11:32.220Z,13.30
2022-11-05T11:12:35.634Z,15.50
2022-11-05T11:13:33.074Z,14.00
2022-11-05T11:14:32.015Z,13.10
2022-11-05T11:15:31.941Z,12.10
2022-11-05T11:16:31.880Z,12.20
2022-11-05T11:17:31.814Z,9.60
2022-11-05T11:20:03.128Z,11.60
2022-11-05T11:21:03.064Z,12.30
2022-11-05T11:22:03.029Z,11.50
2022-11-05T11:23:02.982Z,9.40
2022-11-05T11:24:02.919Z,10.50
2022-11-05T11:25:02.867Z,11.70
2022-11-05T11:26:02.846Z,14.40
2022-11-05T11:27:02.798Z,13.80
2022-11-05T11:28:02.767Z,15.20
2022-11-05T11:29:02.699Z,12.20
2022-11-05T11:30:02.656Z,12.50
2022-11-05T11:31:02.580Z,11.00
2022-11-05T11:32:02.540Z,11.20
2022-11-05T11:33:02.500Z,9.10
2022-11-05T11:34:02.461Z,13.30
2022-11-05T11:35:02.409Z,13.30
2022-11-05T11:36:02.354Z,10.90
2022-11-05T11:37:02.291Z,10.30
2022-11-05T11:38:02.268Z,10.50
2022-11-05T11:39:02.203Z,8.90
2022-11-05T11:40:02.159Z,9.40
2022-11-05T11:41:02.104Z,11.00
2022-11-05T11:42:02.035Z,9.80
2022-11-05T11:43:01.991Z,8.70
2022-11-05T11:44:01.932Z,9.80
2022-11-05T11:45:01.894Z,10.30
2022-11-05T11:46:06.135Z,11.60
2022-11-05T11:47:02.795Z,9.40
2022-11-05T11:48:01.717Z,12.80
2022-11-05T11:49:01.694Z,12.90
2022-11-05T11:50:01.654Z,11.00
2022-11-05T11:51:01.555Z,16.30
2022-11-05T11:52:01.515Z,9.00
2022-11-05T11:53:01.465Z,10.40
2022-11-05T11:54:01.427Z,11.50
2022-11-05T11:55:01.356Z,10.80
2022-11-05T11:56:01.319Z,10.50
2022-11-05T11:57:01.259Z,11.50
2022-11-05T11:58:01.207Z,11.20
2022-11-05T11:59:01.157Z,9.50
2022-11-05T12:00:09.452Z,8.00
2022-11-05T12:01:02.058Z,11.80
2022-11-05T12:02:01.153Z,10.10
2022-11-05T12:03:02.323Z,14.70
2022-11-05T12:04:00.991Z,9.90
2022-11-05T12:05:00.858Z,11.50
2022-11-05T12:06:00.840Z,10.70
2022-11-05T12:07:00.741Z,10.30
2022-11-05T12:08:00.701Z,8.50
2022-11-05T12:09:06.570Z,10.60
2022-11-05T12:10:01.604Z,10.10
2022-11-05T12:11:00.550Z,11.80
2022-11-05T12:12:00.492Z,12.00
2022-11-05T12:13:00.434Z,13.10
2022-11-05T12:14:00.371Z,9.90
2022-11-05T12:15:00.332Z,14.40
2022-11-05T12:16:00.272Z,11.50
2022-11-05T12:17:00.213Z,9.50
2022-11-05T12:18:00.172Z,10.40
2022-11-05T12:19:00.135Z,10.20
2022-11-05T12:20:00.066Z,8.50
2022-11-05T12:21:00.003Z,11.50
2022-11-05T12:21:59.964Z,9.90
2022-11-05T12:22:59.890Z,11.40
2022-11-05T12:23:59.845Z,9.50
2022-11-05T12:24:59.807Z,9.10
2022-11-05T12:25:59.745Z,8.20
2022-11-05T12:26:59.665Z,10.50
2022-11-05T12:27:59.625Z,8.20
2022-11-05T12:29:17.743Z,11.00
2022-11-05T12:30:00.537Z,9.70
2022-11-05T12:30:59.466Z,11.70
2022-11-05T12:31:59.437Z,10.90
2022-11-05T12:32:59.405Z,11.30
2022-11-05T12:33:59.309Z,12.60
2022-11-05T12:34:59.248Z,11.80
2022-11-05T12:35:59.208Z,12.10
2022-11-05T12:36:59.154Z,11.00
2022-11-05T12:37:59.098Z,10.60
2022-11-05T12:38:59.029Z,8.40
2022-11-05T12:39:58.980Z,8.70
2022-11-05T12:40:58.940Z,10.70
2022-11-05T12:41:58.892Z,7.00
2022-11-05T12:42:58.838Z,8.40
2022-11-05T12:43:58.778Z,6.30
2022-11-05T12:44:58.721Z,5.20
2022-11-05T12:45:58.673Z,5.50
2022-11-05T12:46:58.611Z,6.80
2022-11-05T12:47:58.571Z,6.50
2022-11-05T12:48:58.513Z,9.10
2022-11-05T12:49:58.452Z,22.10
2022-11-05T12:50:58.413Z,14.00
2022-11-05T12:51:58.353Z,19.20
2022-11-05T12:52:58.293Z,13.80
2022-11-05T12:53:58.242Z,10.50
2022-11-05T12:54:58.197Z,11.20
2022-11-05T12:55:58.145Z,10.60
2022-11-05T12:56:58.104Z,10.50
2022-11-05T12:57:58.052Z,10.90
2022-11-05T12:58:57.984Z,8.30
2022-11-05T12:59:57.946Z,7.90
2022-11-05T13:00:57.915Z,6.70
2022-11-05T13:01:57.994Z,10.40
2022-11-05T13:02:57.787Z,8.20
2022-11-05T13:03:57.744Z,8.00
2022-11-05T13:04:57.697Z,7.50
2022-11-05T13:06:02.933Z,10.50
2022-11-05T13:06:58.605Z,8.30
2022-11-05T13:07:57.541Z,8.40
2022-11-05T13:08:57.481Z,11.20
2022-11-05T13:09:57.430Z,8.10
2022-11-05T13:10:57.369Z,10.10
2022-11-05T13:11:57.348Z,6.90
2022-11-05T13:12:57.276Z,10.00
2022-11-05T13:13:57.230Z,11.40
2022-11-05T13:14:57.198Z,6.40
2022-11-05T13:15:57.131Z,9.50
2022-11-05T13:16:57.088Z,7.30
2022-11-05T13:17:57.039Z,12.70
2022-11-05T13:18:56.980Z,10.50
2022-11-05T13:19:56.939Z,9.70
2022-11-05T13:20:56.904Z,10.30
2022-11-05T13:21:56.861Z,10.50
2022-11-05T13:22:56.799Z,9.60
2022-11-05T13:23:56.759Z,27.50
2022-11-05T13:24:56.693Z,23.40
2022-11-05T13:25:56.642Z,11.00
2022-11-05T13:26:56.603Z,9.20
2022-11-05T13:27:56.573Z,9.90
2022-11-05T13:28:56.513Z,9.30
2022-11-05T13:29:56.472Z,10.80
2022-11-05T13:30:56.422Z,9.80
2022-11-05T13:31:56.374Z,9.90
2022-11-05T13:32:56.322Z,7.90
2022-11-05T13:33:56.275Z,8.10
2022-11-05T13:34:56.215Z,7.60
2022-11-05T13:35:56.172Z,6.80
2022-11-05T13:36:56.132Z,7.70
2022-11-05T13:37:56.107Z,7.70
2022-11-05T13:38:56.012Z,14.60
2022-11-05T13:39:55.965Z,11.10
2022-11-05T13:40:55.926Z,7.90
2022-11-05T13:41:55.867Z,10.00
2022-11-05T13:42:55.847Z,13.00
2022-11-05T13:43:55.774Z,12.20
2022-11-05T13:44:55.707Z,8.50
2022-11-05T13:45:55.665Z,9.50
2022-11-05T13:46:55.607Z,11.10
2022-11-05T13:47:55.588Z,13.20
2022-11-05T13:48:55.509Z,12.70
2022-11-05T13:49:55.459Z,11.80
2022-11-05T13:50:55.408Z,11.60
2022-11-05T13:51:55.369Z,14.20
2022-11-05T13:52:55.308Z,14.40
2022-11-05T13:53:55.280Z,12.60
2022-11-05T13:54:55.211Z,12.90
2022-11-05T13:55:55.151Z,10.80
2022-11-05T13:56:55.105Z,11.60
2022-11-05T13:57:55.053Z,7.30
2022-11-05T13:58:54.990Z,8.50
2022-11-05T13:59:54.942Z,10.00
2022-11-05T14:00:54.942Z,10.30
2022-11-05T14:01:54.976Z,8.80
2022-11-05T14:02:54.801Z,9.60
2022-11-05T14:03:54.772Z,12.40
2022-11-05T14:05:00.549Z,10.80
2022-11-05T14:05:55.750Z,12.80
2022-11-05T14:06:54.601Z,11.90
2022-11-05T14:07:54.553Z,16.00
2022-11-05T14:08:54.534Z,13.50
2022-11-05T14:09:54.483Z,13.40
2022-11-05T14:10:54.414Z,13.60
2022-11-05T14:11:54.356Z,14.30
2022-11-05T14:12:54.305Z,14.20
2022-11-05T14:13:54.266Z,13.90
2022-11-05T14:14:58.620Z,13.30
2022-11-05T14:15:55.166Z,12.70
2022-11-05T14:16:54.134Z,13.00
2022-11-05T14:17:54.067Z,12.80
2022-11-05T14:18:54.007Z,11.30
2022-11-05T14:19:53.997Z,14.30
2022-11-05T14:20:53.937Z,12.50
2022-11-05T14:21:53.878Z,12.20
2022-11-05T14:22:53.825Z,12.40
2022-11-05T14:23:53.788Z,12.20
2022-11-05T14:24:53.717Z,11.60
2022-11-05T14:25:53.660Z,11.70
2022-11-05T14:26:53.628Z,11.00
2022-11-05T14:27:53.558Z,12.60
2022-11-05T14:28:53.510Z,12.90
2022-11-05T14:29:53.470Z,11.30
2022-11-05T14:30:53.439Z,12.10
2022-11-05T14:32:08.234Z,13.80
2022-11-05T14:32:54.322Z,9.40
2022-11-05T14:33:53.271Z,8.70
2022-11-05T14:34:53.229Z,12.20
2022-11-05T14:35:53.182Z,10.90
2022-11-05T14:36:53.131Z,10.60
2022-11-05T14:37:53.082Z,10.00
2022-11-05T14:38:53.031Z,9.80
2022-11-05T14:39:52.992Z,11.30
2022-11-05T14:40:52.953Z,12.10
2022-11-05T14:41:52.881Z,12.70
2022-11-05T14:42:52.823Z,9.90
2022-11-05T14:43:52.783Z,13.10
2022-11-05T14:44:52.714Z,12.00
2022-11-05T14:45:52.673Z,11.20
2022-11-05T14:46:52.625Z,10.70
2022-11-05T14:47:52.576Z,13.10
2022-11-05T14:48:52.523Z,11.00
2022-11-05T14:49:52.466Z,11.40
2022-11-05T14:50:52.455Z,11.70
2022-11-05T14:51:52.365Z,11.50
2022-11-05T14:52:52.324Z,14.10
2022-11-05T14:53:52.276Z,13.30
2022-11-05T14:54:52.227Z,13.30
2022-11-05T14:55:52.178Z,15.60
2022-11-05T14:58:23.516Z,13.60
2022-11-05T14:59:23.484Z,17.30
2022-11-05T15:00:23.464Z,16.40
2022-11-05T15:01:23.569Z,22.10
2022-11-05T15:02:23.562Z,20.50
2022-11-05T15:03:23.412Z,20.20
2022-11-05T15:04:23.406Z,19.30
2022-11-05T15:05:23.337Z,15.90
2022-11-05T15:06:23.320Z,16.30
2022-11-05T15:07:23.269Z,13.10
2022-11-05T15:08:23.289Z,15.40
2022-11-05T15:09:23.245Z,14.70
2022-11-05T15:10:23.200Z,10.30
2022-11-05T15:11:23.199Z,10.70
2022-11-05T15:12:23.151Z,10.20
2022-11-05T15:13:23.122Z,12.90
2022-11-05T15:14:23.109Z,10.20
2022-11-05T15:15:23.081Z,9.60
2022-11-05T15:16:23.080Z,8.80
2022-11-05T15:17:23.027Z,9.50
2022-11-05T15:18:23.013Z,9.40
2022-11-05T15:19:22.972Z,7.20
2022-11-05T15:20:22.954Z,7.00
2022-11-05T15:21:22.921Z,8.80
2022-11-05T15:22:22.925Z,6.70
2022-11-05T15:23:22.886Z,9.90
2022-11-05T15:24:22.873Z,8.20
2022-11-05T15:25:22.844Z,9.40
2022-11-05T15:26:22.822Z,7.20
2022-11-05T15:27:22.799Z,8.60
2022-11-05T15:28:22.784Z,11.20
2022-11-05T15:29:22.754Z,11.40
2022-11-05T15:30:22.746Z,8.80
2022-11-05T15:31:22.723Z,12.40
2022-11-05T15:32:22.705Z,13.60
2022-11-05T15:33:22.674Z,10.10
2022-11-05T15:34:22.696Z,14.00
2022-11-05T15:35:22.636Z,15.50
2022-11-05T15:36:22.625Z,17.00
2022-11-05T15:37:22.616Z,24.60
2022-11-05T15:38:22.596Z,21.20
2022-11-05T15:39:29.495Z,17.90
2022-11-05T15:40:23.569Z,25.10
2022-11-05T15:41:22.535Z,19.90
2022-11-05T15:42:22.546Z,24.60
2022-11-05T15:43:22.487Z,34.80
2022-11-05T15:44:22.475Z,33.70
2022-11-05T15:45:22.459Z,29.20
2022-11-05T15:46:22.437Z,31.90
2022-11-05T15:47:22.408Z,27.00
2022-11-05T15:48:22.448Z,25.90
2022-11-05T15:49:22.369Z,22.20
2022-11-05T15:50:22.349Z,22.30
2022-11-05T15:51:22.340Z,20.70
2022-11-05T15:52:22.309Z,18.20
2022-11-05T15:53:44.032Z,19.50
2022-11-05T15:54:30.399Z,19.10
2022-11-05T15:55:23.271Z,14.00
2022-11-05T15:56:22.251Z,15.40
2022-11-05T15:57:22.255Z,15.90
2022-11-05T15:58:22.230Z,16.20
2022-11-05T15:59:22.180Z,13.50
2022-11-05T16:00:22.171Z,16.60
2022-11-05T16:01:22.214Z,12.90
2022-11-05T16:02:22.350Z,13.90
2022-11-05T16:03:22.144Z,15.30
2022-11-05T16:04:22.122Z,14.80
2022-11-05T16:05:22.102Z,13.70
2022-11-05T16:06:22.093Z,13.50
2022-11-05T16:07:22.084Z,16.00
2022-11-05T16:08:22.093Z,15.80
2022-11-05T16:09:22.065Z,18.40
2022-11-05T16:10:22.055Z,17.70
2022-11-05T16:11:22.047Z,16.30
2022-11-05T16:12:22.037Z,17.40
2022-11-05T16:13:22.014Z,16.30
2022-11-05T16:14:22.046Z,19.50
2022-11-05T16:15:22.023Z,21.70
2022-11-05T16:16:22.013Z,17.30
2022-11-05T16:17:21.993Z,16.80
2022-11-05T16:18:21.996Z,18.00
2022-11-05T16:19:22.003Z,16.30
2022-11-05T16:20:21.978Z,15.40
2022-11-05T16:21:21.987Z,16.40
2022-11-05T16:22:21.978Z,15.70
2022-11-05T16:23:21.976Z,14.30
2022-11-05T16:24:26.530Z,17.70
2022-11-05T16:25:22.977Z,12.00
2022-11-05T16:26:41.157Z,15.40
2022-11-05T16:27:22.965Z,19.30
2022-11-05T16:28:21.948Z,15.20
2022-11-05T16:29:21.959Z,14.70
2022-11-05T16:30:21.957Z,14.00
2022-11-05T16:31:21.950Z,12.30
2022-11-05T16:32:25.300Z,15.90
2022-11-05T16:33:22.949Z,14.70
2022-11-05T16:34:21.949Z,14.90
2022-11-05T16:35:21.941Z,15.70
2022-11-05T16:36:21.919Z,15.00
2022-11-05T16:37:21.920Z,14.70
2022-11-05T16:38:21.932Z,15.20
2022-11-05T16:39:21.930Z,15.00
2022-11-05T16:40:22.020Z,14.50
2022-11-05T16:41:21.952Z,16.00
2022-11-05T16:42:21.987Z,16.50
2022-11-05T16:43:21.991Z,13.60
2022-11-05T16:44:22.031Z,12.30
2022-11-05T16:45:21.985Z,12.60
2022-11-05T16:46:22.021Z,13.60
2022-11-05T16:47:22.130Z,12.90
2022-11-05T16:48:22.012Z,13.20
2022-11-05T16:49:22.004Z,14.60
2022-11-05T16:50:22.068Z,14.60
2022-11-05T16:51:27.265Z,13.40
2022-11-05T16:52:22.983Z,12.40
2022-11-05T16:53:21.996Z,13.90
2022-11-05T16:54:21.981Z,14.10
2022-11-05T16:55:22.004Z,14.10
2022-11-05T16:56:21.982Z,14.20
2022-11-05T16:57:21.984Z,17.30
2022-11-05T16:58:21.993Z,15.10
2022-11-05T16:59:22.025Z,19.80
2022-11-05T17:00:22.008Z,15.30
2022-11-05T17:01:22.076Z,12.00
2022-11-05T17:02:22.162Z,13.60
2022-11-05T17:03:21.999Z,12.90
2022-11-05T17:04:22.006Z,14.60
2022-11-05T17:05:22.025Z,15.00
2022-11-05T17:06:22.019Z,15.10
2022-11-05T17:07:22.018Z,22.60
2022-11-05T17:08:22.035Z,23.10
2022-11-05T17:09:22.029Z,21.00
2022-11-05T17:10:22.044Z,25.70
2022-11-05T17:11:22.037Z,28.60
2022-11-05T17:12:22.057Z,23.40
2022-11-05T17:13:22.065Z,27.60
2022-11-05T17:14:22.080Z,30.10
2022-11-05T17:15:22.093Z,28.60
2022-11-05T17:16:22.070Z,24.80
2022-11-05T17:17:22.079Z,26.80
2022-11-05T17:18:22.485Z,20.80
2022-11-05T17:19:22.091Z,22.40
2022-11-05T17:20:22.109Z,21.50
2022-11-05T17:21:22.121Z,17.90
2022-11-05T17:22:22.100Z,14.20
2022-11-05T17:23:22.121Z,15.90
2022-11-05T17:24:22.120Z,16.40
2022-11-05T17:25:22.133Z,17.40
2022-11-05T17:26:22.121Z,16.00
2022-11-05T17:27:22.122Z,18.70
2022-11-05T17:28:22.130Z,18.40
2022-11-05T17:29:22.149Z,18.70
2022-11-05T17:30:22.161Z,15.30
2022-11-05T17:31:22.165Z,18.10
2022-11-05T17:32:22.206Z,20.50
2022-11-05T17:33:22.230Z,22.90
2022-11-05T17:34:22.163Z,19.50
2022-11-05T17:35:22.195Z,19.70
2022-11-05T17:36:22.193Z,23.00
2022-11-05T17:37:22.203Z,20.10
2022-11-05T17:38:22.210Z,20.80
2022-11-05T17:39:24.909Z,22.70
2022-11-05T17:40:23.233Z,21.60
2022-11-05T17:41:22.237Z,20.60
2022-11-05T17:42:22.217Z,17.40
2022-11-05T17:43:22.227Z,18.60
2022-11-05T17:44:22.236Z,21.20
2022-11-05T17:45:22.234Z,19.20
2022-11-05T17:46:22.253Z,20.50
2022-11-05T17:47:22.249Z,21.00
2022-11-05T17:48:22.257Z,19.90
2022-11-05T17:49:22.259Z,21.40
2022-11-05T17:50:22.267Z,25.50
2022-11-05T17:51:22.292Z,24.40
2022-11-05T17:52:22.266Z,28.00
2022-11-05T17:53:22.288Z,30.10
2022-11-05T17:54:22.296Z,28.20
2022-11-05T17:55:22.300Z,28.10
2022-11-05T17:56:32.555Z,27.50
2022-11-05T17:57:23.327Z,30.40
2022-11-05T17:58:22.331Z,30.50
2022-11-05T17:59:22.328Z,29.40
2022-11-05T18:00:22.339Z,38.30
2022-11-05T18:01:22.503Z,26.20
2022-11-05T18:02:22.457Z,26.70
2022-11-05T18:03:22.384Z,26.60
2022-11-05T18:04:22.369Z,21.40
2022-11-05T18:05:22.381Z,22.50
2022-11-05T18:06:22.379Z,18.00
2022-11-05T18:07:22.399Z,15.60
2022-11-05T18:08:22.399Z,15.70
2022-11-05T18:09:22.401Z,15.90
2022-11-05T18:10:22.428Z,15.70
2022-11-05T18:11:22.441Z,19.40
2022-11-05T18:12:22.422Z,15.80
2022-11-05T18:13:22.528Z,16.50
2022-11-05T18:14:24.193Z,18.60
2022-11-05T18:15:22.442Z,20.70
2022-11-05T18:16:22.460Z,23.00
2022-11-05T18:17:22.463Z,24.50
2022-11-05T18:18:22.461Z,25.10
2022-11-05T18:19:22.473Z,27.90
2022-11-05T18:20:22.492Z,22.80
2022-11-05T18:21:22.503Z,23.60
2022-11-05T18:22:22.491Z,22.70
2022-11-05T18:23:22.503Z,29.40
2022-11-05T18:24:22.494Z,30.30
2022-11-05T18:25:22.504Z,26.20
2022-11-05T18:26:22.515Z,28.00
2022-11-05T18:27:22.522Z,26.90
2022-11-05T18:28:22.525Z,25.60
2022-11-05T18:29:22.532Z,25.30
2022-11-05T18:30:22.532Z,20.90
2022-11-05T18:31:22.555Z,27.00
2022-11-05T18:32:22.542Z,21.10
2022-11-05T18:33:22.548Z,22.80
2022-11-05T18:34:22.568Z,23.60
2022-11-05T18:35:22.565Z,23.40
2022-11-05T18:36:22.575Z,22.40
2022-11-05T18:37:22.567Z,23.00
2022-11-05T18:38:22.568Z,22.10
2022-11-05T18:39:22.587Z,23.80
2022-11-05T18:40:22.577Z,19.20
2022-11-05T18:41:22.625Z,24.10
2022-11-05T18:42:22.616Z,22.20
2022-11-05T18:43:22.629Z,19.90
2022-11-05T18:44:22.645Z,23.60
2022-11-05T18:45:28.466Z,20.80
2022-11-05T18:46:51.151Z,23.70
2022-11-05T18:47:23.658Z,19.00
2022-11-05T18:48:22.678Z,22.20
2022-11-05T18:49:22.691Z,21.00
2022-11-05T18:50:22.698Z,34.70
2022-11-05T18:51:22.711Z,42.00
2022-11-05T18:52:22.732Z,35.10
2022-11-05T18:53:22.790Z,33.70
2022-11-05T18:54:22.739Z,32.00
2022-11-05T18:55:22.747Z,31.70
2022-11-05T18:56:22.749Z,34.50
2022-11-05T18:57:22.791Z,33.60
2022-11-05T18:58:22.782Z,31.30
2022-11-05T18:59:36.337Z,26.10
2022-11-05T19:00:23.802Z,20.10
2022-11-05T19:01:22.888Z,23.00
2022-11-05T19:02:22.958Z,28.40
2022-11-05T19:03:22.852Z,23.20
2022-11-05T19:04:22.843Z,23.70
2022-11-05T19:05:29.149Z,23.40
2022-11-05T19:06:23.893Z,27.20
2022-11-05T19:07:22.928Z,23.50
2022-11-05T19:08:22.910Z,23.60
2022-11-05T19:09:22.931Z,22.90
2022-11-05T19:10:22.943Z,23.90
2022-11-05T19:11:22.962Z,26.10
2022-11-05T19:12:22.986Z,29.70
2022-11-05T19:13:22.986Z,31.30
2022-11-05T19:14:23.004Z,26.30
2022-11-05T19:15:23.016Z,37.10
2022-11-05T19:16:23.022Z,36.50
2022-11-05T19:17:23.066Z,34.30
2022-11-05T19:18:23.056Z,24.50
2022-11-05T19:19:23.074Z,26.10
2022-11-05T19:20:23.091Z,26.00
2022-11-05T19:21:23.115Z,25.20
2022-11-05T19:22:23.126Z,28.40
2022-11-05T19:23:23.136Z,29.40
2022-11-05T19:24:23.146Z,26.00
2022-11-05T19:25:23.167Z,26.30
2022-11-05T19:26:28.153Z,24.30
2022-11-05T19:27:24.208Z,24.40
2022-11-05T19:28:23.197Z,25.20
2022-11-05T19:29:23.199Z,25.60
2022-11-05T19:30:23.200Z,23.30
2022-11-05T19:31:23.215Z,25.80
2022-11-05T19:32:23.210Z,21.90
2022-11-05T19:33:23.249Z,24.90
2022-11-05T19:34:23.226Z,27.20
2022-11-05T19:35:23.250Z,26.20
2022-11-05T19:36:23.256Z,26.30
2022-11-05T19:37:23.251Z,26.20
2022-11-05T19:38:23.271Z,26.60
2022-11-05T19:39:23.269Z,22.10
2022-11-05T19:40:23.271Z,24.70
2022-11-05T19:41:23.280Z,23.80
2022-11-05T19:42:23.300Z,23.40
2022-11-05T19:43:23.300Z,22.60
2022-11-05T19:44:23.310Z,23.50
2022-11-05T19:45:43.710Z,25.80
2022-11-05T19:46:24.331Z,22.70
2022-11-05T19:47:23.341Z,24.10
2022-11-05T19:48:23.704Z,26.30
2022-11-05T19:49:23.392Z,26.50
2022-11-05T19:50:23.403Z,32.20
2022-11-05T19:51:23.432Z,30.50
2022-11-05T19:52:23.442Z,28.30
2022-11-05T19:53:23.472Z,31.00
2022-11-05T19:54:23.485Z,27.20
2022-11-05T19:55:23.523Z,33.20
2022-11-05T19:56:23.523Z,32.60
2022-11-05T19:57:23.562Z,32.10
2022-11-05T19:58:23.563Z,30.40
2022-11-05T19:59:23.583Z,31.80
2022-11-05T20:00:23.594Z,29.90
2022-11-05T20:01:23.739Z,31.30
2022-11-05T20:02:23.751Z,33.00
2022-11-05T20:03:23.727Z,38.90
2022-11-05T20:04:23.684Z,36.80
2022-11-05T20:05:23.694Z,26.70
2022-11-05T20:06:23.715Z,26.20
2022-11-05T20:07:23.737Z,29.70
2022-11-05T20:08:23.755Z,31.90
2022-11-05T20:09:23.776Z,27.40
2022-11-05T20:10:23.776Z,26.90
2022-11-05T20:11:23.804Z,31.70
2022-11-05T20:12:23.827Z,30.00
2022-11-05T20:13:23.866Z,29.80
2022-11-05T20:14:23.875Z,29.40
2022-11-05T20:15:23.915Z,25.10
2022-11-05T20:16:23.929Z,26.00
2022-11-05T20:17:23.967Z,25.60
2022-11-05T20:18:23.997Z,26.00
2022-11-05T20:19:24.016Z,28.60
2022-11-05T20:20:24.057Z,27.00
2022-11-05T20:21:24.077Z,28.10
2022-11-05T20:22:24.088Z,28.80
2022-11-05T20:23:24.138Z,32.30
2022-11-05T20:24:25.477Z,27.40
2022-11-05T20:25:24.168Z,27.90
2022-11-05T20:26:24.199Z,34.00
2022-11-05T20:27:24.227Z,31.30
2022-11-05T20:28:24.258Z,28.10
2022-11-05T20:29:24.300Z,27.30
2022-11-05T20:30:24.290Z,27.50
2022-11-05T20:31:24.330Z,32.20
2022-11-05T20:32:24.379Z,30.60
2022-11-05T20:33:24.400Z,27.70
2022-11-05T20:34:24.418Z,26.80
2022-11-05T20:35:24.440Z,24.90
2022-11-05T20:36:24.491Z,24.70
2022-11-05T20:37:24.518Z,26.50
2022-11-05T20:38:24.552Z,26.30
2022-11-05T20:39:24.591Z,23.50
2022-11-05T20:40:24.603Z,24.50
2022-11-05T20:41:24.631Z,21.20
2022-11-05T20:42:24.671Z,22.20
2022-11-05T20:43:29.142Z,23.50
2022-11-05T20:44:25.767Z,24.70
2022-11-05T20:45:24.753Z,27.30
2022-11-05T20:46:24.783Z,24.60
2022-11-05T20:47:24.820Z,23.60
2022-11-05T20:48:24.862Z,28.10
2022-11-05T20:49:25.811Z,26.30
2022-11-05T20:50:24.892Z,23.40
2022-11-05T20:51:24.915Z,24.60
2022-11-05T20:52:24.943Z,25.20
2022-11-05T20:53:25.001Z,23.60
2022-11-05T20:54:25.009Z,25.90
2022-11-05T20:55:25.082Z,22.20
2022-11-05T20:56:25.082Z,31.10
2022-11-05T20:57:25.103Z,22.90
2022-11-05T20:58:25.145Z,23.20
2022-11-05T20:59:25.155Z,20.50
2022-11-05T21:00:25.205Z,21.60
2022-11-05T21:01:25.317Z,24.30
2022-11-05T21:02:25.469Z,24.20
2022-11-05T21:03:25.315Z,22.80
2022-11-05T21:04:25.346Z,20.80
2022-11-05T21:05:25.374Z,20.30
2022-11-05T21:06:25.405Z,23.20
2022-11-05T21:07:25.446Z,25.30
2022-11-05T21:08:25.508Z,26.80
2022-11-05T21:09:25.517Z,27.30
2022-11-05T21:10:25.556Z,25.30
2022-11-05T21:11:25.593Z,23.80
2022-11-05T21:12:25.627Z,26.90
2022-11-05T21:13:25.667Z,26.60
2022-11-05T21:14:25.697Z,27.00
2022-11-05T21:15:25.715Z,28.00
2022-11-05T21:16:25.746Z,32.10
2022-11-05T21:17:25.789Z,28.80
2022-11-05T21:18:25.818Z,33.20
2022-11-05T21:19:25.856Z,27.70
2022-11-05T21:20:25.888Z,29.10
2022-11-05T21:21:25.918Z,29.90
2022-11-05T21:22:25.956Z,29.70
2022-11-05T21:23:25.989Z,27.50
2022-11-05T21:24:26.019Z,32.00
2022-11-05T21:25:26.038Z,33.40
2022-11-05T21:26:26.089Z,36.20
2022-11-05T21:27:26.115Z,34.60
2022-11-05T21:28:26.159Z,38.40
2022-11-05T21:29:26.170Z,34.00
2022-11-05T21:30:26.211Z,40.90
2022-11-05T21:31:26.230Z,32.10
2022-11-05T21:32:26.280Z,45.70
2022-11-05T21:33:26.328Z,41.60
2022-11-05T21:34:26.336Z,35.60
2022-11-05T21:35:26.370Z,36.30
2022-11-05T21:36:26.404Z,34.70
2022-11-05T21:37:26.422Z,31.00
2022-11-05T21:38:26.489Z,31.50
2022-11-05T21:39:26.501Z,34.20
2022-11-05T21:40:26.522Z,31.20
2022-11-05T21:41:26.570Z,31.20
2022-11-05T21:42:26.592Z,30.60
2022-11-05T21:43:26.625Z,30.10
2022-11-05T21:44:26.662Z,26.60
2022-11-05T21:45:26.685Z,28.00
2022-11-05T21:46:26.713Z,26.70
2022-11-05T21:47:26.743Z,27.40
2022-11-05T21:48:26.802Z,28.40
2022-11-05T21:49:26.813Z,26.80
2022-11-05T21:50:26.841Z,26.40
2022-11-05T21:51:26.878Z,28.50
2022-11-05T21:52:26.895Z,31.80
2022-11-05T21:53:26.942Z,31.70
2022-11-05T21:54:26.965Z,31.00
2022-11-05T21:55:27.001Z,32.60
2022-11-05T21:56:27.035Z,33.80
2022-11-05T21:57:27.054Z,33.00
2022-11-05T21:58:27.105Z,29.70
2022-11-05T21:59:27.127Z,30.60
2022-11-05T22:00:27.154Z,35.90
2022-11-05T22:01:27.293Z,30.40
2022-11-05T22:02:27.389Z,33.40
2022-11-05T22:03:27.275Z,29.90
2022-11-05T22:04:27.286Z,34.30
2022-11-05T22:05:27.318Z,35.70
2022-11-05T22:06:27.357Z,30.00
2022-11-05T22:07:27.378Z,35.90
2022-11-05T22:08:27.434Z,35.50
2022-11-05T22:09:27.440Z,38.50
2022-11-05T22:10:27.494Z,39.50
2022-11-05T22:11:27.531Z,30.90
2022-11-05T22:12:27.560Z,35.90
2022-11-05T22:13:27.606Z,33.80
2022-11-05T22:14:27.618Z,36.40
2022-11-05T22:15:27.635Z,36.20
2022-11-05T22:16:27.678Z,33.50
2022-11-05T22:17:27.708Z,35.60
2022-11-05T22:18:27.748Z,33.90
2022-11-05T22:19:27.749Z,32.20
2022-11-05T22:20:27.789Z,32.00
2022-11-05T22:21:27.810Z,34.80
2022-11-05T22:22:27.850Z,36.40
2022-11-05T22:23:27.880Z,36.80
2022-11-05T22:24:27.889Z,38.90
2022-11-05T22:26:59.364Z,38.00
2022-11-05T22:27:59.314Z,37.70
2022-11-05T22:28:59.285Z,33.50
2022-11-05T22:29:59.223Z,36.80
2022-11-05T22:30:59.182Z,38.10
2022-11-05T22:31:59.127Z,40.60
2022-11-05T22:32:59.079Z,37.60
2022-11-05T22:33:59.037Z,36.80
2022-11-05T22:34:58.997Z,36.20
2022-11-05T22:35:58.947Z,33.40
2022-11-05T22:36:58.886Z,37.40
2022-11-05T22:37:58.849Z,37.70
2022-11-05T22:39:49.195Z,49.00
2022-11-05T22:40:49.167Z,45.00
2022-11-05T22:41:49.181Z,30.60
2022-11-05T22:42:49.106Z,28.80
2022-11-05T22:43:49.077Z,29.10
2022-11-05T22:44:49.077Z,30.70
2022-11-05T22:45:49.029Z,28.80
2022-11-05T22:46:49.016Z,31.50
2022-11-05T22:47:48.971Z,30.40
2022-11-05T22:48:48.949Z,33.90
2022-11-05T22:49:48.918Z,31.80
2022-11-05T22:50:48.901Z,34.00
2022-11-05T22:51:48.880Z,33.70
2022-11-05T22:52:48.827Z,32.60
2022-11-05T22:53:48.791Z,32.90
2022-11-05T22:54:48.770Z,32.50
2022-11-05T22:55:48.724Z,32.20
2022-11-05T22:56:48.691Z,31.40
2022-11-05T22:57:48.649Z,32.00
2022-11-05T22:58:48.624Z,31.60
2022-11-05T22:59:48.590Z,29.80
2022-11-05T23:00:48.568Z,28.30
2022-11-05T23:01:48.630Z,31.40
2022-11-05T23:02:48.561Z,31.90
2022-11-05T23:03:48.481Z,29.00
2022-11-05T23:04:48.452Z,31.80
2022-11-05T23:05:48.411Z,30.10
2022-11-05T23:06:48.390Z,30.70
2022-11-05T23:07:48.361Z,30.90
2022-11-05T23:08:48.335Z,32.30
2022-11-05T23:09:48.293Z,29.90
2022-11-05T23:10:48.273Z,32.10
2022-11-05T23:11:48.235Z,30.00
2022-11-05T23:12:48.222Z,29.50
2022-11-05T23:13:48.242Z,28.00
2022-11-05T23:14:48.183Z,28.30
2022-11-05T23:15:48.144Z,28.70
2022-11-05T23:16:48.122Z,28.70
2022-11-05T23:17:48.084Z,27.50
2022-11-05T23:18:48.079Z,29.60
2022-11-05T23:19:48.024Z,25.50
2022-11-05T23:20:48.023Z,30.10
2022-11-05T23:21:47.985Z,30.20
2022-11-05T23:22:47.961Z,32.90
2022-11-05T23:23:47.935Z,31.40
2022-11-05T23:24:47.914Z,32.10
2022-11-05T23:25:47.916Z,28.50
2022-11-05T23:26:47.865Z,26.90
2022-11-05T23:27:47.846Z,25.20
2022-11-05T23:28:47.816Z,28.20
2022-11-05T23:29:47.796Z,25.70
2022-11-05T23:30:47.776Z,26.80
2022-11-05T23:31:47.738Z,27.20
2022-11-05T23:32:47.718Z,28.70
2022-11-05T23:33:47.686Z,27.00
2022-11-05T23:34:47.677Z,28.40
2022-11-05T23:35:47.661Z,28.00
2022-11-05T23:36:47.626Z,28.70
2022-11-05T23:37:47.605Z,28.90
2022-11-05T23:38:47.566Z,26.20
2022-11-05T23:39:47.537Z,26.40
2022-11-05T23:40:47.530Z,25.90
2022-11-05T23:41:47.469Z,27.90